Camp Crook, South Dakota
Current Conditions -  °F | °C
As of 9:51 PM on Thursday 30 Oct 2014 (Local Time) from KBHK Reporting Station
Overcast Overcast  
Wind Chill: 22°   Ceiling: 1000
Heat Index: 33°   Visibility: 10mi
Dew Point: 29°   Wind: 17mph
Humidity: 85%   Direction: 120°ESE
Pressure: 30.43"   Gusts: 28mph
Location:  45.55°N, 103.97°W
Report Text: KBHK 310351Z AUTO 12015G24KT 10SM OVC010 01/M02 A3043 RMK AO2 SLP329 T00061017
Loading
Personal Weather Stations






























Interactive Weather Map
Tropical Storm Tracking
New forecast layout! Learn more

10-Day Weather Forecast

Advertisements
Track Severe Weather on mobile